Previous Day
Next Day
Current Day
SHEF ID: FVSO2 FAIRVIEW
STATION TYPE: Mesonet
PRECIP AIR-TEMP WIND-DIRWIND-SPEED REL-HUMID SOLAR-RAD
in F deg mph % W/m2
Raw-Meson Raw-Meson Raw-Meson Raw-Meson Raw-Meson Raw-Meson
(US/Central)
06/05 00:00 0.00 71.73 178.25 8.33 67.75 0.00
06/05 01:00 0.00 70.52 176.75 8.33 70.50 0.00
06/05 02:00 0.00 68.86 165.75 7.94 76.25 0.00
06/05 03:00 0.00 68.36 183.75 8.78 77.25 0.00
06/05 04:00 0.00 67.06 186.25 6.77 79.75 0.00
06/05 05:00 0.00 65.39 165.75 3.46 83.00 0.00
06/05 06:00 0.00 62.92 144.25 2.69 88.50 0.00
06/05 07:00 0.00 61.34 144.50 4.92 94.00 16.50
06/05 08:00 0.00 65.03 141.75 5.65 87.00 197.00
06/05 09:00 0.00 70.43 154.25 7.44 78.00 387.75
06/05 10:00 0.00 76.10 170.25 8.50 62.75 594.75
06/05 11:00 0.00 78.89 173.75 8.44 52.75 762.00
06/05 12:00 0.00 81.59 157.50 10.18 45.50 900.50
06/05 13:00 0.00 82.40 150.25 9.96 40.25 791.25
06/05 14:00 0.00 83.44 153.00 11.47 38.75 810.75
06/05 15:00 0.00 84.51 162.00 11.57 42.00 788.25
06/05 16:00 0.00 83.34 156.25 12.64 47.25 465.25
06/05 17:00 0.00 82.72 160.00 13.31 49.25 550.75
06/05 18:00 0.00 81.37 159.00 12.31 51.75 377.25
06/05 19:00 0.00 78.80 143.00 11.63 61.75 199.50
06/05 20:00 0.00 76.46 147.75 7.11 65.75 48.50
06/05 21:00 0.00 73.81 136.50 6.43 73.25 17.75
06/05 22:00 0.00 70.43 145.75 6.10 82.25 0.00
06/05 23:00 ---- 68.05 154.75 5.93 88.25 0.00